Time;durP1;ratioP1;P1;durP2;ratioP2;P2;SDS_P1;SDS_P2;PMS_P1;PMS_P2;Temp;Humidity;BMP_temperature;BMP_pressure;BME280_temperature;BME280_humidity;BME280_pressure;Samples;Min_cycle;Max_cycle;Signal;HPM_P1;HPM_P2
2022/11/03 00:00:12;;;;;;;7.60;7.40;;;5.80;99.90;;;;;;5140266;27;20213;-79
2022/11/03 00:02:39;;;;;;;7.80;7.60;;;5.80;99.90;;;;;;5128875;28;20233;-80
2022/11/03 00:07:51;;;;;;;7.83;7.63;;;5.80;99.90;;;;;;5120201;27;20227;-80
2022/11/03 00:10:18;;;;;;;7.90;7.70;;;5.80;99.90;;;;;;5120946;28;20225;-80
2022/11/03 00:12:46;;;;;;;8.23;8.03;;;5.80;99.90;;;;;;5121798;28;20221;-79
2022/11/03 00:15:13;;;;;;;8.30;8.10;;;5.70;99.90;;;;;;5120925;28;20236;-79
2022/11/03 00:17:41;;;;;;;8.23;8.03;;;5.60;99.90;;;;;;5121016;28;20217;-80
2022/11/03 00:20:11;;;;;;;8.30;8.10;;;5.60;99.90;;;;;;5120624;28;20268;-79
2022/11/03 00:22:38;;;;;;;8.50;8.30;;;5.70;99.90;;;;;;5120224;28;20236;-80
2022/11/03 00:25:08;;;;;;;8.20;8.00;;;5.60;99.90;;;;;;5120957;28;20236;-79
2022/11/03 00:27:36;;;;;;;8.13;7.93;;;5.70;99.90;;;;;;5121467;28;20235;-79
2022/11/03 00:30:04;;;;;;;8.20;8.00;;;5.70;99.90;;;;;;5120831;28;20289;-79
2022/11/03 00:32:31;;;;;;;8.13;7.93;;;5.70;99.90;;;;;;5120935;28;20296;-80
2022/11/03 00:34:59;;;;;;;8.20;8.00;;;5.70;99.90;;;;;;5121443;28;20229;-80
2022/11/03 00:37:26;;;;;;;8.10;7.90;;;5.70;99.90;;;;;;5121018;28;20288;-79
2022/11/03 00:39:54;;;;;;;8.37;8.17;;;5.70;99.90;;;;;;5122203;28;20225;-79
2022/11/03 00:42:23;;;;;;;8.33;8.13;;;5.60;99.90;;;;;;5122107;28;20329;-80
2022/11/03 00:44:50;;;;;;;8.23;8.03;;;5.60;99.90;;;;;;5121175;28;20319;-79
2022/11/03 00:47:18;;;;;;;8.10;7.90;;;5.60;99.90;;;;;;5120220;27;20311;-79
2022/11/03 00:49:45;;;;;;;8.03;7.83;;;5.50;99.90;;;;;;5119358;28;20229;-77
2022/11/03 00:52:12;;;;;;;8.30;8.10;;;5.60;99.90;;;;;;5116698;28;20320;-77
2022/11/03 00:54:40;;;;;;;8.47;8.27;;;5.60;99.90;;;;;;5116762;28;20231;-76
2022/11/03 00:57:07;;;;;;;8.47;8.27;;;5.60;99.90;;;;;;5116432;28;20251;-77
2022/11/03 00:59:36;;;;;;;8.30;8.10;;;5.60;99.90;;;;;;5115869;28;20224;-76
2022/11/03 01:02:04;;;;;;;8.70;8.50;;;5.60;99.90;;;;;;5117021;28;20228;-76
2022/11/03 01:07:20;;;;;;;8.43;8.23;;;5.50;99.90;;;;;;5117889;27;20225;-78
2022/11/03 01:09:47;;;;;;;8.73;8.53;;;5.60;99.90;;;;;;5117105;28;20237;-79
2022/11/03 01:12:16;;;;;;;8.67;8.47;;;5.60;99.90;;;;;;5117272;28;20292;-78
2022/11/03 01:14:47;;;;;;;8.60;8.40;;;5.50;99.90;;;;;;5118738;28;20236;-78
2022/11/03 01:17:17;;;;;;;8.50;8.30;;;5.50;99.90;;;;;;5117666;27;20237;-79
2022/11/03 01:19:45;;;;;;;8.33;8.13;;;5.50;99.90;;;;;;5117532;28;20292;-78
2022/11/03 01:22:14;;;;;;;8.50;8.30;;;5.60;99.90;;;;;;5117427;28;20259;-78
2022/11/03 01:24:42;;;;;;;8.77;8.57;;;5.50;99.90;;;;;;5117197;28;20232;-79
2022/11/03 01:27:12;;;;;;;8.80;8.60;;;5.50;99.90;;;;;;5117989;27;20228;-78
2022/11/03 01:29:39;;;;;;;8.23;8.03;;;5.50;99.90;;;;;;5117928;28;20235;-78
2022/11/03 01:32:09;;;;;;;7.97;7.77;;;5.50;99.90;;;;;;5118357;28;20236;-78
2022/11/03 01:34:37;;;;;;;8.17;7.97;;;5.50;99.90;;;;;;5117355;28;20239;-78
2022/11/03 01:37:05;;;;;;;8.20;8.00;;;5.50;99.90;;;;;;5117298;28;20228;-79
2022/11/03 01:39:32;;;;;;;7.73;7.53;;;5.50;99.90;;;;;;5117785;28;20299;-79
2022/11/03 01:42:00;;;;;;;7.47;7.27;;;5.50;99.90;;;;;;5118078;28;20224;-80
2022/11/03 01:44:34;;;;;;;7.80;7.60;;;5.50;99.90;;;;;;5117373;28;21000;-78
2022/11/03 01:47:18;;;;;;;7.73;7.53;;;5.50;99.90;;;;;;5117485;28;20236;-79
2022/11/03 01:49:50;;;;;;;7.60;7.40;;;5.50;99.90;;;;;;5117309;28;20316;-79
2022/11/03 01:52:24;;;;;;;7.47;7.27;;;5.50;99.90;;;;;;5118540;28;20235;-77
2022/11/03 01:54:59;;;;;;;7.40;7.20;;;5.50;99.90;;;;;;5127217;28;20239;-79
2022/11/03 01:57:34;;;;;;;7.50;7.30;;;5.50;99.90;;;;;;5130631;27;20231;-79
2022/11/03 02:00:04;;;;;;;7.70;7.50;;;5.40;99.90;;;;;;5129532;28;20333;-80
2022/11/03 02:02:33;;;;;;;7.67;7.47;;;5.40;99.90;;;;;;5122634;28;20243;-78
2022/11/03 02:05:03;;;;;;;7.47;7.27;;;5.40;99.90;;;;;;5121313;28;20239;-78
2022/11/03 02:07:37;;;;;;;7.60;7.40;;;5.40;99.90;;;;;;5121192;27;20257;-79
2022/11/03 02:10:06;;;;;;;7.50;7.30;;;5.30;99.90;;;;;;5120566;28;20240;-79
2022/11/03 02:12:35;;;;;;;7.80;7.60;;;5.40;99.90;;;;;;5121315;28;20228;-79
2022/11/03 02:15:07;;;;;;;7.50;7.30;;;5.30;99.90;;;;;;5120408;28;20268;-79
2022/11/03 02:17:37;;;;;;;7.60;7.40;;;5.30;99.90;;;;;;5120675;27;20232;-79
2022/11/03 02:20:10;;;;;;;7.63;7.43;;;5.30;99.90;;;;;;5120234;28;20233;-80
2022/11/03 02:23:10;;;;;;;7.50;7.30;;;5.20;99.90;;;;;;5120360;28;20286;-78
2022/11/03 02:25:46;;;;;;;7.63;7.43;;;5.10;99.90;;;;;;5120147;28;20235;-79
2022/11/03 02:28:16;;;;;;;7.80;7.60;;;5.10;99.90;;;;;;5120653;27;20289;-79
2022/11/03 02:30:52;;;;;;;7.60;7.40;;;5.10;99.90;;;;;;5121197;28;20241;-78
2022/11/03 02:33:43;;;;;;;7.20;7.00;;;5.10;99.90;;;;;;5121195;28;20227;-78
2022/11/03 02:36:20;;;;;;;7.37;7.17;;;5.00;99.90;;;;;;5108387;28;20240;-79
2022/11/03 02:38:54;;;;;;;7.73;7.53;;;5.00;99.90;;;;;;5135803;27;20267;-78
2022/11/03 02:41:24;;;;;;;7.57;7.37;;;5.00;99.90;;;;;;5142176;27;20228;-79
2022/11/03 02:43:52;;;;;;;7.50;7.30;;;5.00;99.90;;;;;;5140728;28;20247;-79
2022/11/03 02:46:21;;;;;;;7.57;7.37;;;4.90;99.90;;;;;;5130863;28;20225;-79
2022/11/03 02:48:49;;;;;;;7.67;7.47;;;4.80;99.90;;;;;;5125398;27;20301;-78
2022/11/03 02:51:16;;;;;;;7.50;7.30;;;4.70;99.90;;;;;;5130783;28;20220;-78
2022/11/03 02:54:03;;;;;;;7.40;7.20;;;4.70;99.90;;;;;;5133650;28;20327;-78
2022/11/03 02:56:39;;;;;;;7.60;7.40;;;4.70;99.90;;;;;;5134320;28;20289;-78
2022/11/03 02:59:11;;;;;;;7.70;7.50;;;4.70;99.90;;;;;;5133126;27;20220;-78
2022/11/03 03:01:46;;;;;;;7.60;7.40;;;4.70;99.90;;;;;;5133449;28;20288;-79
2022/11/03 03:04:22;;;;;;;7.63;7.43;;;4.70;99.90;;;;;;5133455;27;20240;-78
2022/11/03 03:06:55;;;;;;;7.60;7.40;;;4.70;99.90;;;;;;5132996;28;20239;-78
2022/11/03 03:09:38;;;;;;;7.60;7.40;;;4.70;99.90;;;;;;5133382;27;20319;-79
2022/11/03 03:12:09;;;;;;;7.53;7.33;;;4.80;99.90;;;;;;5132329;28;20251;-78
2022/11/03 03:14:40;;;;;;;7.77;7.57;;;4.70;99.90;;;;;;5134397;28;20232;-78
2022/11/03 03:17:14;;;;;;;7.77;7.57;;;4.70;99.90;;;;;;5132558;27;20327;-79
2022/11/03 03:19:50;;;;;;;7.80;7.60;;;4.70;99.90;;;;;;5134354;28;20284;-78
2022/11/03 03:22:25;;;;;;;7.70;7.50;;;4.70;99.90;;;;;;5133983;28;20279;-78
2022/11/03 03:25:00;;;;;;;7.60;7.40;;;4.60;99.90;;;;;;5133079;28;20244;-79
2022/11/03 03:27:32;;;;;;;7.60;7.40;;;4.60;99.90;;;;;;5133010;27;20244;-79
2022/11/03 03:30:04;;;;;;;7.70;7.50;;;4.60;99.90;;;;;;5132283;28;20221;-78
2022/11/03 03:32:37;;;;;;;7.63;7.43;;;4.60;99.90;;;;;;5132043;28;20296;-78
2022/11/03 03:35:09;;;;;;;7.70;7.50;;;4.60;99.90;;;;;;5127038;28;20259;-78
2022/11/03 03:37:41;;;;;;;7.63;7.43;;;4.50;99.90;;;;;;5120286;27;20240;-78
2022/11/03 03:40:12;;;;;;;7.93;7.73;;;4.50;99.90;;;;;;5119893;28;20243;-79
2022/11/03 03:42:43;;;;;;;7.97;7.77;;;4.50;99.90;;;;;;5120283;28;20235;-78
2022/11/03 03:45:13;;;;;;;8.10;7.90;;;4.40;99.90;;;;;;5119534;28;20231;-79
2022/11/03 03:47:41;;;;;;;8.00;7.80;;;4.40;99.90;;;;;;5119061;27;20287;-80
2022/11/03 03:50:09;;;;;;;8.00;7.80;;;4.40;99.90;;;;;;5119539;28;20221;-79
2022/11/03 03:52:38;;;;;;;7.97;7.77;;;4.40;99.90;;;;;;5120076;28;20239;-79
2022/11/03 03:55:14;;;;;;;7.80;7.60;;;4.40;99.90;;;;;;5121645;28;20232;-79
2022/11/03 03:57:44;;;;;;;7.90;7.70;;;4.30;99.90;;;;;;5121472;28;20274;-78
2022/11/03 04:00:15;;;;;;;7.80;7.60;;;4.30;99.90;;;;;;5119444;28;20315;-79
2022/11/03 04:02:43;;;;;;;8.03;7.83;;;4.40;99.90;;;;;;5119673;28;20267;-78
2022/11/03 04:05:10;;;;;;;8.03;7.83;;;4.30;99.90;;;;;;5119187;28;20240;-78
2022/11/03 04:07:47;;;;;;;8.00;7.80;;;4.40;99.90;;;;;;5119227;27;20247;-79
2022/11/03 04:10:15;;;;;;;7.70;7.50;;;4.40;99.90;;;;;;5119551;28;20288;-79
2022/11/03 04:23:59;;;;;;;7.93;7.73;;;4.40;99.90;;;;;;5119524;28;20327;-79
2022/11/03 04:26:28;;;;;;;7.90;7.70;;;4.40;99.90;;;;;;5119238;28;20228;-79
2022/11/03 04:28:58;;;;;;;7.87;7.67;;;4.40;99.90;;;;;;5122093;27;20225;-80
2022/11/03 04:31:29;;;;;;;8.03;7.83;;;4.40;99.90;;;;;;5121448;28;20228;-79
2022/11/03 04:33:57;;;;;;;7.80;7.60;;;4.30;99.90;;;;;;5121601;28;20308;-79
2022/11/03 04:36:26;;;;;;;8.07;7.87;;;4.40;99.90;;;;;;5121878;28;20228;-79
2022/11/03 04:38:53;;;;;;;7.90;7.70;;;4.40;99.90;;;;;;5119508;28;20323;-78
2022/11/03 04:41:24;;;;;;;8.00;7.80;;;4.40;99.90;;;;;;5119481;28;20272;-78
2022/11/03 04:43:53;;;;;;;8.17;7.97;;;4.40;99.90;;;;;;5119125;28;20235;-79
2022/11/03 04:46:26;;;;;;;7.70;7.50;;;4.40;99.90;;;;;;5119987;28;20362;-78
2022/11/03 04:48:54;;;;;;;8.07;7.87;;;4.40;99.90;;;;;;5119207;28;20327;-79
2022/11/03 04:51:25;;;;;;;8.10;7.90;;;4.50;99.90;;;;;;5119312;28;20249;-79
2022/11/03 04:53:58;;;;;;;7.77;7.57;;;4.50;99.90;;;;;;5118748;28;20248;-79
2022/11/03 04:56:26;;;;;;;7.90;7.70;;;4.50;99.90;;;;;;5119112;28;20275;-79
2022/11/03 04:58:54;;;;;;;7.77;7.57;;;4.50;99.90;;;;;;5118652;28;20256;-79
2022/11/03 05:01:24;;;;;;;8.37;8.17;;;4.40;99.90;;;;;;5118785;28;20235;-78
2022/11/03 05:03:54;;;;;;;8.00;7.80;;;4.30;99.90;;;;;;5118845;28;20301;-79
2022/11/03 05:06:24;;;;;;;8.13;7.93;;;4.30;99.90;;;;;;5126564;28;20225;-78
2022/11/03 05:08:57;;;;;;;8.10;7.90;;;4.30;99.90;;;;;;5139506;27;20229;-79
2022/11/03 05:11:31;;;;;;;8.10;7.90;;;4.30;99.90;;;;;;5140515;27;20256;-78
2022/11/03 05:14:01;;;;;;;8.20;8.00;;;4.30;99.90;;;;;;5136945;27;20228;-78
2022/11/03 05:16:33;;;;;;;8.23;8.03;;;4.30;99.90;;;;;;5121111;28;20289;-79
2022/11/03 05:19:01;;;;;;;8.10;7.90;;;4.30;99.90;;;;;;5118510;27;20298;-79
2022/11/03 05:21:29;;;;;;;8.10;7.90;;;4.40;99.90;;;;;;5118635;28;20267;-79
2022/11/03 05:24:11;;;;;;;8.20;8.00;;;4.40;99.90;;;;;;5119324;28;20237;-79
2022/11/03 05:26:39;;;;;;;8.00;7.80;;;4.40;99.90;;;;;;5118982;28;20248;-78
2022/11/03 05:29:14;;;;;;;8.17;7.97;;;4.30;99.90;;;;;;5121724;27;20237;-79
2022/11/03 05:31:47;;;;;;;8.27;8.07;;;4.30;99.90;;;;;;5122295;28;20220;-77
2022/11/03 05:34:32;;;;;;;8.07;7.87;;;4.30;99.90;;;;;;5122368;28;20292;-79
2022/11/03 05:37:13;;;;;;;8.00;7.80;;;4.30;99.90;;;;;;5122412;27;20228;-78
2022/11/03 05:39:45;;;;;;;7.90;7.70;;;4.30;99.90;;;;;;5121900;28;20331;-78
2022/11/03 05:42:24;;;;;;;8.00;7.80;;;4.30;99.90;;;;;;5123008;28;20217;-78
2022/11/03 05:44:52;;;;;;;7.83;7.63;;;4.30;99.90;;;;;;5122336;28;20232;-79
2022/11/03 05:49:56;;;;;;;8.10;7.90;;;4.30;99.90;;;;;;5183719;22;20232;-80
2022/11/03 05:52:27;;;;;;;8.93;8.63;;;4.40;99.90;;;;;;5147662;27;20256;-80
2022/11/03 05:57:44;;;;;;;8.90;8.60;;;4.40;99.90;;;;;;5156805;27;20212;-82
2022/11/03 06:00:30;;;;;;;9.03;8.73;;;4.40;99.90;;;;;;5129412;28;20240;-80
2022/11/03 06:02:58;;;;;;;9.40;9.10;;;4.40;99.90;;;;;;5129415;28;20257;-80
2022/11/03 06:05:39;;;;;;;9.30;9.00;;;4.40;99.90;;;;;;5133442;28;20232;-81
2022/11/03 06:08:16;;;;;;;9.10;8.80;;;4.40;99.90;;;;;;5134705;27;20271;-80
2022/11/03 06:10:55;;;;;;;9.07;8.77;;;4.40;99.90;;;;;;5137829;28;20228;-80
2022/11/03 06:13:39;;;;;;;9.20;8.90;;;4.50;99.90;;;;;;5127628;28;20225;-81
2022/11/03 06:16:36;;;;;;;9.10;8.80;;;4.50;99.90;;;;;;5125358;28;20310;-81
2022/11/03 06:19:25;;;;;;;9.30;9.00;;;4.50;99.90;;;;;;5124689;28;20242;-81
2022/11/03 06:22:06;;;;;;;9.17;8.87;;;4.50;99.90;;;;;;5124893;28;20237;-80
2022/11/03 06:24:50;;;;;;;9.20;8.90;;;4.50;99.90;;;;;;5124035;28;20405;-84
2022/11/03 06:27:22;;;;;;;9.13;8.83;;;4.50;99.90;;;;;;5124818;28;20229;-81
2022/11/03 06:29:52;;;;;;;9.20;8.90;;;4.60;99.90;;;;;;5124640;27;20272;-82
2022/11/03 06:32:20;;;;;;;9.40;9.10;;;4.60;99.90;;;;;;5124768;28;20232;-82
2022/11/03 06:34:50;;;;;;;9.30;9.00;;;4.70;99.90;;;;;;5112931;28;20222;-82
2022/11/03 06:37:26;;;;;;;9.30;9.00;;;4.70;99.90;;;;;;5132764;27;20259;-81
2022/11/03 06:40:04;;;;;;;8.93;8.63;;;4.70;99.90;;;;;;5126949;27;20320;-84
2022/11/03 07:10:44;;;;;;;;;;;;;;;;;;;;;
2022/11/03 07:27:31;;;;;;;9.50;9.20;;;5.20;99.90;;;;;;5041933;28;20231;-85
